sensor_id;sensor_type;location;lat;lon;timestamp;pressure;altitude;pressure_sealevel;temperature;humidity
54556;BME280;57291;37.520;15.106;2023-02-28T00:01:26;101131.03;;;11.90;66.84
54556;BME280;57291;37.520;15.106;2023-02-28T00:03:55;101133.75;;;11.90;66.28
54556;BME280;57291;37.520;15.106;2023-02-28T00:06:23;101134.28;;;11.92;66.16
54556;BME280;57291;37.520;15.106;2023-02-28T00:08:51;101142.66;;;11.96;65.74
54556;BME280;57291;37.520;15.106;2023-02-28T00:11:18;101139.63;;;11.97;65.47
54556;BME280;57291;37.520;15.106;2023-02-28T00:13:46;101152.88;;;12.04;65.21
54556;BME280;57291;37.520;15.106;2023-02-28T00:16:19;101155.09;;;12.02;64.92
54556;BME280;57291;37.520;15.106;2023-02-28T00:18:47;101155.38;;;12.01;64.99
54556;BME280;57291;37.520;15.106;2023-02-28T00:21:15;101164.66;;;12.00;65.59
54556;BME280;57291;37.520;15.106;2023-02-28T00:23:43;101159.53;;;11.98;66.13
54556;BME280;57291;37.520;15.106;2023-02-28T00:26:10;101157.63;;;11.99;66.36
54556;BME280;57291;37.520;15.106;2023-02-28T00:28:40;101161.94;;;12.00;67.05
54556;BME280;57291;37.520;15.106;2023-02-28T00:31:07;101150.03;;;11.95;67.64
54556;BME280;57291;37.520;15.106;2023-02-28T00:33:35;101146.72;;;11.99;68.11
54556;BME280;57291;37.520;15.106;2023-02-28T00:36:07;101148.31;;;12.00;68.53
54556;BME280;57291;37.520;15.106;2023-02-28T00:38:36;101145.03;;;12.03;68.61
54556;BME280;57291;37.520;15.106;2023-02-28T00:41:03;101131.09;;;12.04;68.94
54556;BME280;57291;37.520;15.106;2023-02-28T00:43:33;101121.53;;;12.07;69.25
54556;BME280;57291;37.520;15.106;2023-02-28T00:46:01;101134.34;;;12.06;69.11
54556;BME280;57291;37.520;15.106;2023-02-28T00:48:29;101143.09;;;12.03;68.60
54556;BME280;57291;37.520;15.106;2023-02-28T00:50:57;101145.59;;;12.00;68.33
54556;BME280;57291;37.520;15.106;2023-02-28T00:53:24;101145.38;;;11.96;67.61
54556;BME280;57291;37.520;15.106;2023-02-28T00:55:52;101132.06;;;11.94;67.40
54556;BME280;57291;37.520;15.106;2023-02-28T00:58:19;101134.28;;;11.92;67.04
54556;BME280;57291;37.520;15.106;2023-02-28T01:00:47;101132.44;;;11.88;66.62
54556;BME280;57291;37.520;15.106;2023-02-28T01:03:17;101124.03;;;11.84;66.21
54556;BME280;57291;37.520;15.106;2023-02-28T01:05:46;101121.84;;;11.81;66.09
54556;BME280;57291;37.520;15.106;2023-02-28T01:08:16;101133.59;;;11.82;66.08
54556;BME280;57291;37.520;15.106;2023-02-28T01:10:43;101144.72;;;11.85;66.16
54556;BME280;57291;37.520;15.106;2023-02-28T01:13:11;101143.34;;;11.88;65.86
54556;BME280;57291;37.520;15.106;2023-02-28T01:15:45;101138.59;;;11.93;65.34
54556;BME280;57291;37.520;15.106;2023-02-28T01:18:13;101132.06;;;11.94;65.10
54556;BME280;57291;37.520;15.106;2023-02-28T01:20:40;101132.78;;;12.00;64.79
54556;BME280;57291;37.520;15.106;2023-02-28T01:23:08;101130.06;;;12.00;64.35
54556;BME280;57291;37.520;15.106;2023-02-28T01:25:36;101126.00;;;11.97;64.22
54556;BME280;57291;37.520;15.106;2023-02-28T01:28:05;101123.00;;;11.99;63.87
54556;BME280;57291;37.520;15.106;2023-02-28T01:30:33;101121.03;;;12.05;62.51
54556;BME280;57291;37.520;15.106;2023-02-28T01:33:00;101111.97;;;12.09;61.38
54556;BME280;57291;37.520;15.106;2023-02-28T01:35:28;101115.41;;;12.15;60.51
54556;BME280;57291;37.520;15.106;2023-02-28T01:37:55;101119.47;;;12.17;60.36
54556;BME280;57291;37.520;15.106;2023-02-28T01:40:32;101117.47;;;12.23;59.92
54556;BME280;57291;37.520;15.106;2023-02-28T01:42:59;101116.88;;;12.26;59.71
54556;BME280;57291;37.520;15.106;2023-02-28T01:45:30;101114.06;;;12.31;58.63
54556;BME280;57291;37.520;15.106;2023-02-28T01:48:02;101116.50;;;12.33;58.43
54556;BME280;57291;37.520;15.106;2023-02-28T01:50:35;101119.22;;;12.33;58.53
54556;BME280;57291;37.520;15.106;2023-02-28T01:53:07;101115.69;;;12.32;58.34
54556;BME280;57291;37.520;15.106;2023-02-28T01:55:37;101118.94;;;12.34;58.09
54556;BME280;57291;37.520;15.106;2023-02-28T01:58:07;101115.69;;;12.32;58.20
54556;BME280;57291;37.520;15.106;2023-02-28T02:00:36;101107.56;;;12.27;58.73
54556;BME280;57291;37.520;15.106;2023-02-28T02:03:08;101110.94;;;12.24;58.78
54556;BME280;57291;37.520;15.106;2023-02-28T02:05:39;101107.47;;;12.18;59.11
54556;BME280;57291;37.520;15.106;2023-02-28T02:08:10;101121.47;;;12.12;59.37
54556;BME280;57291;37.520;15.106;2023-02-28T02:10:59;101115.00;;;12.08;59.42
54556;BME280;57291;37.520;15.106;2023-02-28T02:18:51;101094.22;;;12.12;60.20
54556;BME280;57291;37.520;15.106;2023-02-28T02:37:40;101107.16;;;12.20;60.02
54556;BME280;57291;37.520;15.106;2023-02-28T02:40:29;101107.88;;;12.26;58.62
54556;BME280;57291;37.520;15.106;2023-02-28T02:45:57;101118.75;;;12.44;56.98
54556;BME280;57291;37.520;15.106;2023-02-28T02:48:29;101124.44;;;12.48;56.79
54556;BME280;57291;37.520;15.106;2023-02-28T02:51:00;101114.13;;;12.45;57.65
54556;BME280;57291;37.520;15.106;2023-02-28T02:53:50;101115.50;;;12.42;57.60
54556;BME280;57291;37.520;15.106;2023-02-28T02:56:23;101114.72;;;12.42;58.34
54556;BME280;57291;37.520;15.106;2023-02-28T02:58:54;101108.44;;;12.41;58.76
54556;BME280;57291;37.520;15.106;2023-02-28T03:01:24;101102.91;;;12.47;59.98
54556;BME280;57291;37.520;15.106;2023-02-28T03:04:10;101091.50;;;12.44;61.02
54556;BME280;57291;37.520;15.106;2023-02-28T03:06:38;101084.72;;;12.42;61.12
54556;BME280;57291;37.520;15.106;2023-02-28T03:09:05;101074.44;;;12.53;61.61
54556;BME280;57291;37.520;15.106;2023-02-28T03:11:35;101071.31;;;12.59;61.94
54556;BME280;57291;37.520;15.106;2023-02-28T03:16:54;101087.09;;;12.62;61.91
54556;BME280;57291;37.520;15.106;2023-02-28T03:28:38;101106.81;;;12.73;63.02
54556;BME280;57291;37.520;15.106;2023-02-28T03:33:48;101105.41;;;12.76;63.44
54556;BME280;57291;37.520;15.106;2023-02-28T03:36:27;101104.06;;;12.73;63.30
54556;BME280;57291;37.520;15.106;2023-02-28T03:39:02;101103.59;;;12.71;63.29
54556;BME280;57291;37.520;15.106;2023-02-28T03:41:47;101104.19;;;12.68;63.08
54556;BME280;57291;37.520;15.106;2023-02-28T03:47:02;101115.16;;;12.63;62.98
54556;BME280;57291;37.520;15.106;2023-02-28T03:49:41;101114.56;;;12.66;61.42
54556;BME280;57291;37.520;15.106;2023-02-28T03:52:14;101114.59;;;12.80;59.44
54556;BME280;57291;37.520;15.106;2023-02-28T03:54:47;101111.97;;;12.88;59.11
54556;BME280;57291;37.520;15.106;2023-02-28T03:59:47;101106.94;;;12.82;59.24
54556;BME280;57291;37.520;15.106;2023-02-28T04:02:16;101106.13;;;12.81;59.62
54556;BME280;57291;37.520;15.106;2023-02-28T04:04:45;101096.81;;;12.82;59.73
54556;BME280;57291;37.520;15.106;2023-02-28T04:07:15;101093.41;;;12.77;59.86
54556;BME280;57291;37.520;15.106;2023-02-28T04:09:43;101094.59;;;12.71;59.77
54556;BME280;57291;37.520;15.106;2023-02-28T04:12:10;101086.50;;;12.65;60.11
54556;BME280;57291;37.520;15.106;2023-02-28T04:14:38;101085.28;;;12.58;60.71
54556;BME280;57291;37.520;15.106;2023-02-28T04:17:05;101091.91;;;12.52;60.27
54556;BME280;57291;37.520;15.106;2023-02-28T04:19:32;101099.88;;;12.48;60.34
54556;BME280;57291;37.520;15.106;2023-02-28T04:21:59;101104.31;;;12.44;59.91
54556;BME280;57291;37.520;15.106;2023-02-28T04:24:27;101105.53;;;12.38;59.82
54556;BME280;57291;37.520;15.106;2023-02-28T04:26:56;101106.13;;;12.35;59.77
54556;BME280;57291;37.520;15.106;2023-02-28T04:29:26;101103.75;;;12.28;60.15
54556;BME280;57291;37.520;15.106;2023-02-28T04:31:54;101103.06;;;12.36;60.92
54556;BME280;57291;37.520;15.106;2023-02-28T04:34:22;101094.81;;;12.41;61.74
54556;BME280;57291;37.520;15.106;2023-02-28T04:36:50;101102.63;;;12.48;62.16
54556;BME280;57291;37.520;15.106;2023-02-28T04:39:37;101111.53;;;12.54;62.54
54556;BME280;57291;37.520;15.106;2023-02-28T04:42:05;101113.34;;;12.58;63.82
54556;BME280;57291;37.520;15.106;2023-02-28T04:44:32;101115.16;;;12.63;64.30
54556;BME280;57291;37.520;15.106;2023-02-28T04:46:59;101114.16;;;12.59;64.53
54556;BME280;57291;37.520;15.106;2023-02-28T04:49:27;101116.59;;;12.60;64.80
54556;BME280;57291;37.520;15.106;2023-02-28T04:51:54;101113.88;;;12.60;65.12
54556;BME280;57291;37.520;15.106;2023-02-28T04:54:21;101117.59;;;12.64;64.92
54556;BME280;57291;37.520;15.106;2023-02-28T04:56:48;101106.69;;;12.64;64.82
54556;BME280;57291;37.520;15.106;2023-02-28T04:59:17;101110.16;;;12.70;64.34
54556;BME280;57291;37.520;15.106;2023-02-28T05:01:48;101112.50;;;12.77;63.88
54556;BME280;57291;37.520;15.106;2023-02-28T05:04:15;101117.03;;;12.81;63.36
54556;BME280;57291;37.520;15.106;2023-02-28T05:06:43;101116.03;;;12.77;63.62
54556;BME280;57291;37.520;15.106;2023-02-28T05:09:10;101119.06;;;12.89;62.87
54556;BME280;57291;37.520;15.106;2023-02-28T05:11:40;101107.53;;;12.93;63.09
54556;BME280;57291;37.520;15.106;2023-02-28T05:14:12;101106.44;;;12.94;62.98
54556;BME280;57291;37.520;15.106;2023-02-28T05:16:39;101093.91;;;12.93;63.20
54556;BME280;57291;37.520;15.106;2023-02-28T05:19:07;101090.16;;;12.88;63.45
54556;BME280;57291;37.520;15.106;2023-02-28T05:21:36;101084.19;;;12.86;63.74
54556;BME280;57291;37.520;15.106;2023-02-28T05:24:10;101080.66;;;12.86;63.96
54556;BME280;57291;37.520;15.106;2023-02-28T05:26:40;101083.91;;;12.88;64.13
54556;BME280;57291;37.520;15.106;2023-02-28T05:29:09;101084.41;;;12.90;64.28
54556;BME280;57291;37.520;15.106;2023-02-28T05:31:36;101083.59;;;12.89;64.36
54556;BME280;57291;37.520;15.106;2023-02-28T05:34:04;101087.44;;;12.88;64.22
54556;BME280;57291;37.520;15.106;2023-02-28T05:36:31;101079.56;;;12.87;64.45
54556;BME280;57291;37.520;15.106;2023-02-28T05:38:59;101084.00;;;12.83;65.38
54556;BME280;57291;37.520;15.106;2023-02-28T05:41:26;101076.13;;;12.81;65.55
54556;BME280;57291;37.520;15.106;2023-02-28T05:43:54;101080.97;;;12.84;65.36
54556;BME280;57291;37.520;15.106;2023-02-28T05:46:21;101078.84;;;12.81;65.34
54556;BME280;57291;37.520;15.106;2023-02-28T05:48:48;101095.41;;;12.85;65.52
54556;BME280;57291;37.520;15.106;2023-02-28T05:51:16;101086.13;;;12.86;65.41
54556;BME280;57291;37.520;15.106;2023-02-28T05:53:44;101080.06;;;12.89;65.60
54556;BME280;57291;37.520;15.106;2023-02-28T05:56:11;101082.78;;;12.89;65.83
54556;BME280;57291;37.520;15.106;2023-02-28T05:58:38;101087.44;;;12.88;66.08
54556;BME280;57291;37.520;15.106;2023-02-28T06:03:51;101076.44;;;12.94;67.24
54556;BME280;57291;37.520;15.106;2023-02-28T06:06:18;101080.06;;;13.03;67.72
54556;BME280;57291;37.520;15.106;2023-02-28T06:08:45;101081.78;;;13.12;68.15
54556;BME280;57291;37.520;15.106;2023-02-28T06:11:13;101085.66;;;13.25;68.51
54556;BME280;57291;37.520;15.106;2023-02-28T06:13:40;101082.69;;;13.35;68.86
54556;BME280;57291;37.520;15.106;2023-02-28T06:16:09;101086.06;;;13.46;69.52
54556;BME280;57291;37.520;15.106;2023-02-28T06:18:38;101086.25;;;13.50;70.62
54556;BME280;57291;37.520;15.106;2023-02-28T06:21:05;101093.31;;;13.51;70.97
54556;BME280;57291;37.520;15.106;2023-02-28T06:23:32;101107.97;;;13.55;71.54
54556;BME280;57291;37.520;15.106;2023-02-28T06:25:59;101118.19;;;13.63;72.42
54556;BME280;57291;37.520;15.106;2023-02-28T06:28:27;101110.38;;;13.70;73.35
54556;BME280;57291;37.520;15.106;2023-02-28T06:30:54;101106.63;;;13.80;74.55
54556;BME280;57291;37.520;15.106;2023-02-28T06:33:21;101105.69;;;13.84;75.19
54556;BME280;57291;37.520;15.106;2023-02-28T06:35:51;101112.84;;;13.94;75.76
54556;BME280;57291;37.520;15.106;2023-02-28T06:38:19;101116.66;;;14.07;76.33
54556;BME280;57291;37.520;15.106;2023-02-28T06:40:55;101123.38;;;14.23;76.54
54556;BME280;57291;37.520;15.106;2023-02-28T06:43:24;101118.53;;;14.43;77.35
54556;BME280;57291;37.520;15.106;2023-02-28T06:45:55;101112.72;;;14.58;77.59
54556;BME280;57291;37.520;15.106;2023-02-28T06:48:23;101121.75;;;14.67;78.02
54556;BME280;57291;37.520;15.106;2023-02-28T06:50:50;101108.28;;;14.71;78.16
54556;BME280;57291;37.520;15.106;2023-02-28T06:53:17;101112.84;;;14.84;78.27
54556;BME280;57291;37.520;15.106;2023-02-28T06:55:45;101102.25;;;14.91;78.97
54556;BME280;57291;37.520;15.106;2023-02-28T06:58:12;101103.38;;;15.30;79.49
54556;BME280;57291;37.520;15.106;2023-02-28T07:00:42;101111.06;;;15.85;79.14
54556;BME280;57291;37.520;15.106;2023-02-28T07:03:11;101109.91;;;16.38;78.14
54556;BME280;57291;37.520;15.106;2023-02-28T07:05:39;101104.88;;;17.14;77.40
54556;BME280;57291;37.520;15.106;2023-02-28T07:08:06;101106.97;;;17.46;73.31
54556;BME280;57291;37.520;15.106;2023-02-28T07:10:36;101110.06;;;17.95;73.05
54556;BME280;57291;37.520;15.106;2023-02-28T07:13:05;101113.19;;;18.06;69.00
54556;BME280;57291;37.520;15.106;2023-02-28T07:15:33;101121.97;;;17.57;68.92
54556;BME280;57291;37.520;15.106;2023-02-28T07:18:00;101117.56;;;17.27;70.83
54556;BME280;57291;37.520;15.106;2023-02-28T07:20:29;101120.19;;;16.68;73.48
54556;BME280;57291;37.520;15.106;2023-02-28T07:22:56;101121.88;;;16.34;74.68
54556;BME280;57291;37.520;15.106;2023-02-28T07:25:26;101120.75;;;16.09;76.45
54556;BME280;57291;37.520;15.106;2023-02-28T07:27:54;101127.19;;;15.95;77.56
54556;BME280;57291;37.520;15.106;2023-02-28T07:30:21;101122.22;;;16.06;78.30
54556;BME280;57291;37.520;15.106;2023-02-28T07:32:48;101113.94;;;16.58;77.07
54556;BME280;57291;37.520;15.106;2023-02-28T07:35:15;101109.91;;;17.11;74.48
54556;BME280;57291;37.520;15.106;2023-02-28T07:37:42;101115.81;;;17.31;73.37
54556;BME280;57291;37.520;15.106;2023-02-28T07:40:11;101118.34;;;17.66;71.55
54556;BME280;57291;37.520;15.106;2023-02-28T07:42:39;101119.75;;;17.72;71.10
54556;BME280;57291;37.520;15.106;2023-02-28T07:45:09;101131.13;;;17.91;70.94
54556;BME280;57291;37.520;15.106;2023-02-28T07:47:38;101129.97;;;18.34;69.79
54556;BME280;57291;37.520;15.106;2023-02-28T07:50:09;101134.00;;;18.49;68.29
54556;BME280;57291;37.520;15.106;2023-02-28T07:52:37;101129.03;;;18.30;69.91
54556;BME280;57291;37.520;15.106;2023-02-28T07:55:06;101128.16;;;17.96;71.21
54556;BME280;57291;37.520;15.106;2023-02-28T07:57:34;101120.66;;;17.85;71.44
54556;BME280;57291;37.520;15.106;2023-02-28T08:00:02;101129.16;;;17.71;71.92
54556;BME280;57291;37.520;15.106;2023-02-28T08:02:36;101136.09;;;17.77;71.38
54556;BME280;57291;37.520;15.106;2023-02-28T08:05:05;101135.91;;;17.44;73.31
54556;BME280;57291;37.520;15.106;2023-02-28T08:07:32;101150.44;;;17.15;74.97
54556;BME280;57291;37.520;15.106;2023-02-28T08:10:00;101149.44;;;17.28;74.67
54556;BME280;57291;37.520;15.106;2023-02-28T08:12:27;101148.78;;;17.31;74.50
54556;BME280;57291;37.520;15.106;2023-02-28T08:14:54;101142.78;;;17.29;73.98
54556;BME280;57291;37.520;15.106;2023-02-28T08:17:21;101151.38;;;16.72;76.28
54556;BME280;57291;37.520;15.106;2023-02-28T08:19:48;101151.88;;;16.56;77.12
54556;BME280;57291;37.520;15.106;2023-02-28T08:26:43;101151.53;;;16.58;78.99
54556;BME280;57291;37.520;15.106;2023-02-28T08:29:10;101160.56;;;16.76;78.29
54556;BME280;57291;37.520;15.106;2023-02-28T08:31:38;101157.66;;;16.63;78.06
54556;BME280;57291;37.520;15.106;2023-02-28T08:34:11;101162.53;;;16.49;79.84
54556;BME280;57291;37.520;15.106;2023-02-28T08:36:39;101166.88;;;16.59;79.61
54556;BME280;57291;37.520;15.106;2023-02-28T08:39:07;101169.91;;;16.83;78.26
54556;BME280;57291;37.520;15.106;2023-02-28T08:41:34;101162.13;;;16.94;77.27
54556;BME280;57291;37.520;15.106;2023-02-28T08:44:01;101160.06;;;16.74;77.75
54556;BME280;57291;37.520;15.106;2023-02-28T08:46:28;101172.84;;;16.35;78.65
54556;BME280;57291;37.520;15.106;2023-02-28T08:48:57;101174.94;;;16.21;80.08
54556;BME280;57291;37.520;15.106;2023-02-28T08:51:29;101179.97;;;16.10;81.44
54556;BME280;57291;37.520;15.106;2023-02-28T08:54:00;101173.78;;;15.95;82.87
54556;BME280;57291;37.520;15.106;2023-02-28T08:56:28;101171.66;;;15.75;84.26
54556;BME280;57291;37.520;15.106;2023-02-28T08:58:57;101173.31;;;15.45;87.06
54556;BME280;57291;37.520;15.106;2023-02-28T09:01:26;101164.81;;;15.55;89.01
54556;BME280;57291;37.520;15.106;2023-02-28T09:03:55;101158.19;;;15.56;89.96
54556;BME280;57291;37.520;15.106;2023-02-28T09:06:26;101157.31;;;15.69;91.56
54556;BME280;57291;37.520;15.106;2023-02-28T09:08:56;101168.19;;;16.09;90.27
54556;BME280;57291;37.520;15.106;2023-02-28T09:11:25;101170.59;;;16.28;88.51
54556;BME280;57291;37.520;15.106;2023-02-28T09:13:52;101169.78;;;16.28;86.36
54556;BME280;57291;37.520;15.106;2023-02-28T09:16:20;101184.13;;;15.99;88.61
54556;BME280;57291;37.520;15.106;2023-02-28T09:18:47;101183.50;;;16.10;89.66
54556;BME280;57291;37.520;15.106;2023-02-28T09:21:17;101178.19;;;16.23;89.25
54556;BME280;57291;37.520;15.106;2023-02-28T09:23:46;101178.34;;;16.35;88.28
54556;BME280;57291;37.520;15.106;2023-02-28T09:26:19;101177.34;;;16.57;88.08
54556;BME280;57291;37.520;15.106;2023-02-28T09:28:46;101171.38;;;16.63;86.92
54556;BME280;57291;37.520;15.106;2023-02-28T09:31:18;101171.38;;;16.72;86.71
54556;BME280;57291;37.520;15.106;2023-02-28T09:33:50;101174.47;;;16.62;86.93
54556;BME280;57291;37.520;15.106;2023-02-28T09:36:19;101174.78;;;16.60;86.32
54556;BME280;57291;37.520;15.106;2023-02-28T09:38:48;101189.94;;;16.58;86.32
54556;BME280;57291;37.520;15.106;2023-02-28T09:41:21;101188.81;;;16.41;87.01
54556;BME280;57291;37.520;15.106;2023-02-28T09:43:56;101184.47;;;16.40;88.35
54556;BME280;57291;37.520;15.106;2023-02-28T09:46:30;101197.53;;;16.44;88.39
54556;BME280;57291;37.520;15.106;2023-02-28T09:49:06;101199.31;;;16.31;89.16
54556;BME280;57291;37.520;15.106;2023-02-28T09:51:44;101206.09;;;16.25;89.58
54556;BME280;57291;37.520;15.106;2023-02-28T09:54:19;101204.63;;;16.10;90.49
54556;BME280;57291;37.520;15.106;2023-02-28T09:57:05;101212.22;;;16.22;90.54
54556;BME280;57291;37.520;15.106;2023-02-28T09:59:48;101225.94;;;16.13;90.96
54556;BME280;57291;37.520;15.106;2023-02-28T10:05:21;101229.41;;;15.87;90.86
54556;BME280;57291;37.520;15.106;2023-02-28T10:08:07;101233.28;;;15.86;91.69
54556;BME280;57291;37.520;15.106;2023-02-28T10:10:49;101231.34;;;15.87;92.23
54556;BME280;57291;37.520;15.106;2023-02-28T10:16:40;101234.09;;;15.87;91.72
54556;BME280;57291;37.520;15.106;2023-02-28T10:19:18;101237.78;;;15.82;91.64
54556;BME280;57291;37.520;15.106;2023-02-28T10:22:00;101225.41;;;15.93;92.10
54556;BME280;57291;37.520;15.106;2023-02-28T10:24:52;101222.38;;;16.21;90.90
54556;BME280;57291;37.520;15.106;2023-02-28T10:27:25;101217.88;;;16.69;88.01
54556;BME280;57291;37.520;15.106;2023-02-28T10:29:55;101209.44;;;16.91;85.76
54556;BME280;57291;37.520;15.106;2023-02-28T10:32:25;101212.38;;;16.95;85.94
54556;BME280;57291;37.520;15.106;2023-02-28T10:37:27;101177.19;;;17.35;83.57
54556;BME280;57291;37.520;15.106;2023-02-28T10:39:55;101185.59;;;17.68;81.42
54556;BME280;57291;37.520;15.106;2023-02-28T10:42:29;101178.66;;;17.92;79.51
54556;BME280;57291;37.520;15.106;2023-02-28T10:48:03;101163.06;;;18.04;77.27
54556;BME280;57291;37.520;15.106;2023-02-28T10:50:50;101172.31;;;18.21;76.08
54556;BME280;57291;37.520;15.106;2023-02-28T10:59:03;101172.91;;;17.76;74.44
54556;BME280;57291;37.520;15.106;2023-02-28T11:01:47;101165.00;;;17.74;74.61
54556;BME280;57291;37.520;15.106;2023-02-28T11:07:20;101161.47;;;17.44;77.33
54556;BME280;57291;37.520;15.106;2023-02-28T11:09:54;101162.22;;;17.53;77.24
54556;BME280;57291;37.520;15.106;2023-02-28T11:14:56;101181.22;;;16.82;80.56
54556;BME280;57291;37.520;15.106;2023-02-28T11:17:33;101182.03;;;16.82;80.61
54556;BME280;57291;37.520;15.106;2023-02-28T11:20:07;101178.59;;;17.03;79.54
54556;BME280;57291;37.520;15.106;2023-02-28T11:22:45;101181.78;;;17.14;78.46
54556;BME280;57291;37.520;15.106;2023-02-28T11:25:36;101173.31;;;16.89;78.66
54556;BME280;57291;37.520;15.106;2023-02-28T11:31:04;101175.41;;;16.57;79.21
54556;BME280;57291;37.520;15.106;2023-02-28T11:33:41;101181.72;;;16.40;80.28
54556;BME280;57291;37.520;15.106;2023-02-28T11:38:41;101166.25;;;16.27;81.71
54556;BME280;57291;37.520;15.106;2023-02-28T11:46:50;101120.59;;;16.23;84.02
54556;BME280;57291;37.520;15.106;2023-02-28T11:55:20;101099.44;;;16.49;80.82
54556;BME280;57291;37.520;15.106;2023-02-28T12:00:50;101098.94;;;16.47;81.50
54556;BME280;57291;37.520;15.106;2023-02-28T12:03:39;101090.97;;;16.72;81.61
54556;BME280;57291;37.520;15.106;2023-02-28T12:06:21;101079.34;;;16.83;80.66
54556;BME280;57291;37.520;15.106;2023-02-28T12:11:51;101068.63;;;16.91;80.63
54556;BME280;57291;37.520;15.106;2023-02-28T12:19:48;101038.66;;;16.85;80.13
54556;BME280;57291;37.520;15.106;2023-02-28T12:22:30;101024.13;;;17.15;80.04
54556;BME280;57291;37.520;15.106;2023-02-28T12:25:18;101033.38;;;17.31;79.98
54556;BME280;57291;37.520;15.106;2023-02-28T12:27:48;101020.94;;;17.54;78.68
54556;BME280;57291;37.520;15.106;2023-02-28T12:33:00;101019.28;;;17.11;80.85
54556;BME280;57291;37.520;15.106;2023-02-28T12:35:52;101013.06;;;17.23;79.56
54556;BME280;57291;37.520;15.106;2023-02-28T12:38:27;101022.28;;;17.48;78.13
54556;BME280;57291;37.520;15.106;2023-02-28T12:41:00;101008.72;;;17.43;77.42
54556;BME280;57291;37.520;15.106;2023-02-28T12:43:34;101004.50;;;17.46;76.36
54556;BME280;57291;37.520;15.106;2023-02-28T12:46:17;101006.72;;;17.52;75.19
54556;BME280;57291;37.520;15.106;2023-02-28T12:48:52;101007.25;;;17.46;74.82
54556;BME280;57291;37.520;15.106;2023-02-28T12:51:21;101016.16;;;17.43;74.55
54556;BME280;57291;37.520;15.106;2023-02-28T12:54:04;101010.69;;;17.64;73.41
54556;BME280;57291;37.520;15.106;2023-02-28T12:59:41;101005.88;;;17.61;73.40
54556;BME280;57291;37.520;15.106;2023-02-28T13:10:43;101028.16;;;17.38;73.78
54556;BME280;57291;37.520;15.106;2023-02-28T13:13:19;101027.22;;;17.55;74.49
54556;BME280;57291;37.520;15.106;2023-02-28T13:16:20;101021.81;;;17.67;73.48
54556;BME280;57291;37.520;15.106;2023-02-28T13:18:48;101005.91;;;17.73;72.61
54556;BME280;57291;37.520;15.106;2023-02-28T13:21:24;101012.56;;;17.51;72.45
54556;BME280;57291;37.520;15.106;2023-02-28T13:24:01;100983.59;;;17.53;72.81
54556;BME280;57291;37.520;15.106;2023-02-28T13:34:33;100961.13;;;17.93;69.15
54556;BME280;57291;37.520;15.106;2023-02-28T13:39:51;100945.50;;;17.85;68.33
54556;BME280;57291;37.520;15.106;2023-02-28T13:42:35;100948.81;;;17.57;69.11
54556;BME280;57291;37.520;15.106;2023-02-28T13:50:35;100940.91;;;17.77;65.46
54556;BME280;57291;37.520;15.106;2023-02-28T14:06:54;100976.97;;;17.54;57.72
54556;BME280;57291;37.520;15.106;2023-02-28T14:09:52;100965.56;;;17.65;58.05
54556;BME280;57291;37.520;15.106;2023-02-28T14:12:51;100961.94;;;17.52;60.45
54556;BME280;57291;37.520;15.106;2023-02-28T14:18:17;100962.88;;;17.14;61.63
54556;BME280;57291;37.520;15.106;2023-02-28T14:20:47;100964.38;;;17.11;62.64
54556;BME280;57291;37.520;15.106;2023-02-28T14:23:26;100940.44;;;17.12;66.27
54556;BME280;57291;37.520;15.106;2023-02-28T14:26:14;100934.41;;;16.98;67.09
54556;BME280;57291;37.520;15.106;2023-02-28T14:29:14;100956.50;;;16.72;62.47
54556;BME280;57291;37.520;15.106;2023-02-28T14:31:57;100949.34;;;16.50;61.39
54556;BME280;57291;37.520;15.106;2023-02-28T14:37:33;100919.94;;;16.59;63.90
54556;BME280;57291;37.520;15.106;2023-02-28T14:40:04;100921.38;;;16.56;67.40
54556;BME280;57291;37.520;15.106;2023-02-28T14:42:36;100922.03;;;16.53;71.14
54556;BME280;57291;37.520;15.106;2023-02-28T14:45:21;100917.22;;;16.50;72.69
54556;BME280;57291;37.520;15.106;2023-02-28T14:47:52;100918.13;;;16.25;71.73
54556;BME280;57291;37.520;15.106;2023-02-28T14:50:37;100886.47;;;15.98;71.88
54556;BME280;57291;37.520;15.106;2023-02-28T14:53:06;100887.13;;;15.86;71.56
54556;BME280;57291;37.520;15.106;2023-02-28T14:55:45;100897.50;;;15.71;71.66
54556;BME280;57291;37.520;15.106;2023-02-28T14:58:33;100906.50;;;15.63;75.34
54556;BME280;57291;37.520;15.106;2023-02-28T15:01:02;100914.88;;;15.49;77.71
54556;BME280;57291;37.520;15.106;2023-02-28T15:06:04;100911.03;;;15.33;77.35
54556;BME280;57291;37.520;15.106;2023-02-28T15:08:32;100909.13;;;15.34;78.43
54556;BME280;57291;37.520;15.106;2023-02-28T15:11:23;100910.22;;;15.33;86.08
54556;BME280;57291;37.520;15.106;2023-02-28T15:13:52;100916.53;;;15.07;90.79
54556;BME280;57291;37.520;15.106;2023-02-28T15:16:33;100937.44;;;15.03;93.89
54556;BME280;57291;37.520;15.106;2023-02-28T15:19:07;100947.91;;;15.01;95.47
54556;BME280;57291;37.520;15.106;2023-02-28T15:21:42;100951.44;;;15.01;96.09
54556;BME280;57291;37.520;15.106;2023-02-28T15:26:57;100979.13;;;14.91;97.55
54556;BME280;57291;37.520;15.106;2023-02-28T15:29:26;100978.78;;;14.84;98.52
54556;BME280;57291;37.520;15.106;2023-02-28T15:32:05;100982.94;;;14.82;99.52
54556;BME280;57291;37.520;15.106;2023-02-28T15:34:36;100974.09;;;14.85;100.00
54556;BME280;57291;37.520;15.106;2023-02-28T15:40:22;100987.16;;;14.88;100.00
54556;BME280;57291;37.520;15.106;2023-02-28T15:43:14;100982.78;;;14.87;100.00
54556;BME280;57291;37.520;15.106;2023-02-28T15:45:58;100987.00;;;14.84;100.00